createdAt,value
2022-12-05T00:00:56.039Z,41.80
2022-12-05T00:03:23.577Z,34.35
2022-12-05T00:05:51.128Z,35.08
2022-12-05T00:08:18.750Z,37.75
2022-12-05T00:10:46.235Z,39.72
2022-12-05T00:13:13.918Z,33.00
2022-12-05T00:15:41.771Z,38.88
2022-12-05T00:18:09.577Z,35.85
2022-12-05T00:20:36.950Z,35.28
2022-12-05T00:23:04.541Z,36.35
2022-12-05T00:25:32.194Z,36.22
2022-12-05T00:27:59.951Z,33.22
2022-12-05T00:30:27.495Z,31.02
2022-12-05T00:32:54.868Z,39.88
2022-12-05T00:35:22.367Z,38.42
2022-12-05T00:37:49.841Z,35.47
2022-12-05T00:40:17.610Z,36.72
2022-12-05T00:42:48.102Z,27.60
2022-12-05T00:45:19.580Z,29.77
2022-12-05T00:47:47.102Z,31.27
2022-12-05T00:50:14.555Z,17.08
2022-12-05T00:52:41.956Z,28.70
2022-12-05T00:55:09.701Z,27.63
2022-12-05T00:57:37.192Z,32.97
2022-12-05T01:00:05.722Z,37.40
2022-12-05T01:02:33.295Z,33.13
2022-12-05T01:05:00.798Z,29.77
2022-12-05T01:07:28.521Z,32.55
2022-12-05T01:09:56.411Z,28.02
2022-12-05T01:12:23.976Z,31.38
2022-12-05T01:14:51.418Z,29.38
2022-12-05T01:17:19.018Z,26.52
2022-12-05T01:19:46.591Z,23.45
2022-12-05T01:22:14.120Z,24.30
2022-12-05T01:24:41.737Z,23.00
2022-12-05T01:27:09.277Z,21.85
2022-12-05T01:29:36.787Z,22.45
2022-12-05T01:32:04.734Z,24.33
2022-12-05T01:34:32.346Z,21.63
2022-12-05T01:36:59.665Z,20.98
2022-12-05T01:39:27.336Z,19.52
2022-12-05T01:41:54.703Z,23.00
2022-12-05T01:44:25.087Z,20.13
2022-12-05T01:46:53.170Z,20.85
2022-12-05T01:49:29.020Z,20.55
2022-12-05T01:51:57.717Z,19.17
2022-12-05T01:54:25.787Z,21.55
2022-12-05T01:56:58.109Z,22.00
2022-12-05T01:59:26.396Z,21.80
2022-12-05T02:01:54.147Z,17.10
2022-12-05T02:04:21.609Z,22.45
2022-12-05T02:06:49.240Z,19.05
2022-12-05T02:09:16.837Z,20.65
2022-12-05T02:11:49.242Z,22.33
2022-12-05T02:14:31.445Z,24.17
2022-12-05T02:17:02.814Z,20.23
2022-12-05T02:19:30.361Z,18.95
2022-12-05T02:22:04.047Z,22.23
2022-12-05T02:24:45.551Z,18.30
2022-12-05T02:27:39.279Z,17.00
2022-12-05T02:30:09.981Z,19.17
2022-12-05T02:32:40.390Z,16.88
2022-12-05T02:35:26.823Z,22.10
2022-12-05T02:38:05.183Z,19.83
2022-12-05T02:40:37.429Z,19.45
2022-12-05T02:43:09.056Z,22.25
2022-12-05T02:45:38.688Z,19.25
2022-12-05T02:48:07.337Z,21.40
2022-12-05T02:50:37.669Z,18.52
2022-12-05T02:53:07.706Z,19.17
2022-12-05T02:55:35.902Z,19.00
2022-12-05T02:58:05.929Z,19.85
2022-12-05T03:00:35.749Z,21.83
2022-12-05T03:03:03.637Z,20.17
2022-12-05T03:05:49.896Z,19.30
2022-12-05T03:08:20.076Z,21.35
2022-12-05T03:10:48.856Z,23.48
2022-12-05T03:13:18.990Z,21.40
2022-12-05T03:15:50.340Z,20.60
2022-12-05T03:18:26.206Z,19.10
2022-12-05T03:20:58.486Z,17.65
2022-12-05T03:23:27.450Z,20.95
2022-12-05T03:25:58.216Z,25.92
2022-12-05T03:28:39.488Z,21.90
2022-12-05T03:31:09.643Z,22.52
2022-12-05T03:33:40.310Z,27.92
2022-12-05T03:36:13.065Z,28.15
2022-12-05T03:38:47.260Z,26.45
2022-12-05T03:44:03.137Z,25.13
2022-12-05T03:46:36.315Z,24.08
2022-12-05T03:49:06.998Z,27.57
2022-12-05T03:51:37.169Z,26.95
2022-12-05T03:54:07.517Z,30.98
2022-12-05T03:57:01.226Z,24.45
2022-12-05T03:59:31.860Z,27.92
2022-12-05T04:02:01.723Z,23.23
2022-12-05T04:04:33.120Z,27.77
2022-12-05T04:07:02.185Z,21.27
2022-12-05T04:09:33.769Z,30.15
2022-12-05T04:12:03.931Z,27.17
2022-12-05T04:14:40.603Z,21.73
2022-12-05T04:17:11.124Z,27.65
2022-12-05T04:20:03.428Z,27.08
2022-12-05T04:22:30.946Z,23.90
2022-12-05T04:25:18.221Z,29.30
2022-12-05T04:27:48.441Z,22.95
2022-12-05T04:30:18.809Z,25.40
2022-12-05T04:32:49.998Z,20.48
2022-12-05T04:35:38.446Z,22.23
2022-12-05T04:38:12.902Z,20.60
2022-12-05T04:40:43.117Z,21.40
2022-12-05T04:43:11.726Z,17.52
2022-12-05T04:45:40.489Z,23.65
2022-12-05T04:48:11.619Z,19.58
2022-12-05T04:50:39.828Z,18.05
2022-12-05T04:53:07.706Z,23.13
2022-12-05T04:55:36.524Z,24.63
2022-12-05T04:58:07.508Z,25.08
2022-12-05T05:00:38.706Z,33.53
2022-12-05T05:03:13.058Z,30.25
2022-12-05T05:05:41.606Z,25.65
2022-12-05T05:08:17.526Z,22.92
2022-12-05T05:11:03.527Z,30.15
2022-12-05T05:13:31.053Z,25.48
2022-12-05T05:15:58.584Z,18.85
2022-12-05T05:18:26.043Z,19.88
2022-12-05T05:20:53.603Z,24.35
2022-12-05T05:23:21.236Z,27.38
2022-12-05T05:25:53.295Z,23.10
2022-12-05T05:28:20.716Z,24.60
2022-12-05T05:30:48.190Z,25.92
2022-12-05T05:33:16.156Z,25.02
2022-12-05T05:35:43.663Z,25.90
2022-12-05T05:38:11.144Z,27.55
2022-12-05T05:40:38.516Z,24.42
2022-12-05T05:43:06.026Z,27.48
2022-12-05T05:45:33.816Z,26.42
2022-12-05T05:48:01.384Z,35.22
2022-12-05T05:50:28.988Z,31.98
2022-12-05T05:52:56.715Z,30.25
2022-12-05T05:55:24.206Z,29.48
2022-12-05T05:57:51.609Z,34.95
2022-12-05T06:00:19.117Z,31.20
2022-12-05T06:02:46.977Z,31.10
2022-12-05T06:05:14.480Z,28.92
2022-12-05T06:07:41.997Z,31.70
2022-12-05T06:10:09.839Z,28.20
2022-12-05T06:12:37.370Z,22.10
2022-12-05T06:15:05.037Z,28.10
2022-12-05T06:17:32.419Z,25.23
2022-12-05T06:20:00.128Z,24.25
2022-12-05T06:22:27.799Z,24.52
2022-12-05T06:24:55.455Z,20.98
2022-12-05T06:27:22.959Z,20.77
2022-12-05T06:29:50.821Z,22.38
2022-12-05T06:32:18.367Z,22.33
2022-12-05T06:34:45.816Z,21.90
2022-12-05T06:37:13.647Z,24.77
2022-12-05T06:39:41.370Z,32.67
2022-12-05T06:42:09.107Z,25.52
2022-12-05T06:44:37.083Z,25.73
2022-12-05T06:47:04.467Z,28.70
2022-12-05T06:49:37.702Z,25.70
2022-12-05T06:52:05.614Z,24.77
2022-12-05T06:54:33.888Z,24.30
2022-12-05T06:57:01.307Z,22.42
2022-12-05T06:59:28.969Z,28.52
2022-12-05T07:01:56.494Z,28.00
2022-12-05T07:04:24.814Z,24.15
2022-12-05T07:06:53.079Z,25.95
2022-12-05T07:09:21.525Z,30.00
2022-12-05T07:11:54.729Z,30.15
2022-12-05T07:14:46.434Z,30.40
2022-12-05T07:17:10.000Z,28.35
2022-12-05T07:19:37.872Z,24.38
2022-12-05T07:22:09.371Z,28.30
2022-12-05T07:27:07.627Z,24.08
2022-12-05T07:29:35.933Z,30.60
2022-12-05T07:32:03.712Z,24.65
2022-12-05T07:34:31.450Z,22.92
2022-12-05T07:36:58.792Z,32.28
2022-12-05T07:39:26.459Z,32.47
2022-12-05T07:41:54.261Z,27.83
2022-12-05T07:44:21.978Z,28.85
2022-12-05T07:46:49.725Z,28.17
2022-12-05T07:49:17.225Z,27.73
2022-12-05T07:51:44.600Z,31.30
2022-12-05T07:54:12.165Z,32.75
2022-12-05T07:56:44.627Z,37.45
2022-12-05T07:59:15.010Z,42.63
2022-12-05T08:01:42.480Z,35.38
2022-12-05T08:04:15.085Z,41.30
2022-12-05T08:06:43.412Z,43.00
2022-12-05T08:09:10.836Z,39.25
2022-12-05T08:11:38.469Z,36.70
2022-12-05T08:14:06.350Z,40.40
2022-12-05T08:16:34.713Z,33.00
2022-12-05T08:19:03.309Z,40.72
2022-12-05T08:21:31.124Z,37.40
2022-12-05T08:23:59.195Z,39.40
2022-12-05T08:26:31.291Z,37.67
2022-12-05T08:29:00.548Z,37.45
2022-12-05T08:31:29.463Z,41.17
2022-12-05T08:33:59.394Z,39.40
2022-12-05T08:36:28.180Z,37.38
2022-12-05T08:38:59.954Z,41.38
2022-12-05T08:41:30.354Z,43.85
2022-12-05T08:43:59.388Z,38.33
2022-12-05T08:46:27.045Z,40.35
2022-12-05T08:48:55.061Z,46.00
2022-12-05T08:51:22.734Z,42.47
2022-12-05T08:53:50.237Z,46.35
2022-12-05T08:56:22.034Z,42.53
2022-12-05T08:58:57.367Z,40.13
2022-12-05T09:01:32.292Z,40.08
2022-12-05T09:04:05.491Z,46.15
2022-12-05T09:06:34.993Z,41.97
2022-12-05T09:09:05.128Z,42.15
2022-12-05T09:11:34.988Z,40.58
2022-12-05T09:14:03.203Z,45.60
2022-12-05T09:16:37.027Z,41.17
2022-12-05T09:19:06.201Z,43.00
2022-12-05T09:21:36.669Z,41.40
2022-12-05T09:24:04.900Z,46.13
2022-12-05T09:26:32.530Z,44.83
2022-12-05T09:29:01.484Z,32.72
2022-12-05T09:31:29.733Z,42.40
2022-12-05T09:33:57.971Z,38.88
2022-12-05T09:36:29.929Z,41.50
2022-12-05T09:39:03.379Z,45.90
2022-12-05T09:42:05.183Z,43.63
2022-12-05T09:44:51.930Z,43.58
2022-12-05T09:47:19.834Z,37.65
2022-12-05T09:49:50.259Z,41.13
2022-12-05T09:52:26.904Z,47.25
2022-12-05T09:54:55.053Z,40.55
2022-12-05T09:57:33.374Z,41.05
2022-12-05T10:00:02.145Z,34.17
2022-12-05T10:02:46.458Z,41.08
2022-12-05T10:05:36.571Z,41.67
2022-12-05T10:08:11.453Z,49.35
2022-12-05T10:10:44.987Z,38.53
2022-12-05T10:13:15.629Z,35.53
2022-12-05T10:15:45.956Z,42.17
2022-12-05T10:18:22.995Z,39.65
2022-12-05T10:20:57.371Z,42.10
2022-12-05T10:24:00.525Z,42.90
2022-12-05T10:26:33.882Z,47.65
2022-12-05T10:29:08.099Z,63.78
2022-12-05T10:31:37.612Z,46.78
2022-12-05T10:34:07.788Z,43.25
2022-12-05T10:36:35.598Z,47.88
2022-12-05T10:39:08.327Z,36.45
2022-12-05T10:41:39.079Z,45.60
2022-12-05T10:44:06.888Z,42.10
2022-12-05T10:46:36.592Z,39.47
2022-12-05T10:49:04.548Z,39.65
2022-12-05T10:51:37.196Z,40.47
2022-12-05T10:54:25.806Z,45.45
2022-12-05T10:56:55.086Z,46.60
2022-12-05T10:59:25.922Z,43.67
2022-12-05T11:01:56.525Z,37.53
2022-12-05T11:04:25.048Z,36.90
2022-12-05T11:07:01.124Z,39.55
2022-12-05T11:09:33.288Z,43.42
2022-12-05T11:12:24.112Z,40.60
2022-12-05T11:15:04.138Z,44.20
2022-12-05T11:17:34.650Z,43.22
2022-12-05T11:20:02.928Z,41.90
2022-12-05T11:22:35.188Z,46.95
2022-12-05T11:25:03.164Z,41.75
2022-12-05T11:27:32.984Z,49.05
2022-12-05T11:30:02.492Z,39.70
2022-12-05T11:32:31.943Z,35.47
2022-12-05T11:34:59.781Z,34.20
2022-12-05T11:37:37.198Z,36.83
2022-12-05T11:40:13.915Z,42.03
2022-12-05T11:42:44.537Z,42.22
2022-12-05T11:45:18.270Z,37.28
2022-12-05T11:47:49.184Z,37.53
2022-12-05T11:50:33.217Z,40.05
2022-12-05T11:53:13.071Z,35.25
2022-12-05T11:55:44.436Z,39.88
2022-12-05T11:58:27.744Z,43.00
2022-12-05T12:00:58.600Z,38.63
2022-12-05T12:03:33.621Z,39.35
2022-12-05T12:06:04.632Z,44.60
2022-12-05T12:08:44.578Z,46.20
2022-12-05T12:11:13.094Z,41.65
2022-12-05T12:13:43.895Z,60.80
2022-12-05T12:16:30.108Z,46.28
2022-12-05T12:18:58.050Z,38.95
2022-12-05T12:21:45.802Z,52.13
2022-12-05T12:24:26.961Z,42.05
2022-12-05T12:27:06.448Z,43.85
2022-12-05T12:30:01.255Z,100.90
2022-12-05T12:34:57.019Z,48.80
2022-12-05T12:37:30.778Z,44.30
2022-12-05T12:40:08.083Z,47.25
2022-12-05T12:42:45.809Z,55.03
2022-12-05T12:45:33.152Z,36.92
2022-12-05T12:48:04.011Z,50.25
2022-12-05T12:50:34.812Z,41.67
2022-12-05T12:53:04.379Z,44.05
2022-12-05T12:55:37.798Z,33.92
2022-12-05T12:58:05.621Z,36.40
2022-12-05T13:00:33.229Z,31.63
2022-12-05T13:03:19.722Z,38.17
2022-12-05T13:05:49.028Z,32.88
2022-12-05T13:08:16.755Z,41.65
2022-12-05T13:10:45.829Z,38.17
2022-12-05T13:13:21.347Z,37.97
2022-12-05T13:15:53.656Z,40.40
2022-12-05T13:18:23.080Z,36.08
2022-12-05T13:20:52.951Z,41.13
2022-12-05T13:23:22.248Z,35.35
2022-12-05T13:25:50.785Z,34.25
2022-12-05T13:28:26.917Z,42.67
2022-12-05T13:31:07.851Z,42.63
2022-12-05T13:33:37.326Z,39.95
2022-12-05T13:36:25.971Z,46.72
2022-12-05T13:39:19.234Z,40.80
2022-12-05T13:42:08.092Z,41.83
2022-12-05T13:44:40.727Z,47.05
2022-12-05T13:47:10.594Z,41.38
2022-12-05T13:49:44.877Z,37.58
2022-12-05T13:52:14.796Z,35.35
2022-12-05T13:54:48.240Z,36.38
2022-12-05T13:57:36.202Z,32.88
2022-12-05T14:00:11.062Z,40.47
2022-12-05T14:02:47.474Z,75.82
2022-12-05T14:05:15.380Z,91.72
2022-12-05T14:07:47.206Z,114.80
2022-12-05T14:10:18.943Z,64.75
2022-12-05T14:12:51.749Z,40.85
2022-12-05T14:15:31.617Z,38.55
2022-12-05T14:18:04.677Z,35.08
2022-12-05T14:20:38.556Z,35.25
2022-12-05T14:23:29.308Z,39.13
2022-12-05T14:26:20.324Z,43.53
2022-12-05T14:29:08.366Z,41.47
2022-12-05T14:31:39.058Z,32.90
2022-12-05T14:34:28.277Z,34.55
2022-12-05T14:36:55.780Z,33.08
2022-12-05T14:39:29.960Z,41.50
2022-12-05T14:44:32.630Z,30.77
2022-12-05T14:47:06.301Z,31.33
2022-12-05T14:49:52.399Z,34.47
2022-12-05T14:52:22.499Z,38.85
2022-12-05T14:54:52.805Z,29.75
2022-12-05T14:57:20.917Z,34.15
2022-12-05T15:00:00.215Z,33.72
2022-12-05T15:02:30.055Z,33.13
2022-12-05T15:05:02.176Z,31.23
2022-12-05T15:07:33.014Z,35.42
2022-12-05T15:10:06.218Z,32.85
2022-12-05T15:12:42.480Z,31.02
2022-12-05T15:15:21.945Z,37.05
2022-12-05T15:17:52.475Z,34.38
2022-12-05T15:20:24.207Z,33.13
2022-12-05T15:22:53.115Z,31.98
2022-12-05T15:25:24.847Z,35.53
2022-12-05T15:27:54.363Z,30.83
2022-12-05T15:30:22.579Z,28.80
2022-12-05T15:32:56.158Z,26.27
2022-12-05T15:35:32.157Z,32.72
2022-12-05T15:38:09.075Z,29.90
2022-12-05T15:40:38.041Z,34.10
2022-12-05T15:43:32.157Z,31.42
2022-12-05T15:46:20.809Z,32.95
2022-12-05T15:48:49.005Z,34.63
2022-12-05T15:51:16.944Z,33.15
2022-12-05T15:53:48.875Z,39.38
2022-12-05T15:56:19.358Z,33.95
2022-12-05T15:58:50.439Z,38.60
2022-12-05T16:01:21.759Z,39.10
2022-12-05T16:04:09.796Z,43.95
2022-12-05T16:06:45.465Z,36.28
2022-12-05T16:09:18.609Z,28.88
2022-12-05T16:11:56.312Z,26.35
2022-12-05T16:14:57.879Z,31.33
2022-12-05T16:17:16.091Z,29.08
2022-12-05T16:19:43.984Z,25.25
2022-12-05T16:22:15.037Z,27.27
2022-12-05T16:25:03.409Z,30.58
2022-12-05T16:27:34.641Z,29.15
2022-12-05T16:30:13.613Z,61.70
2022-12-05T16:32:42.779Z,85.78
2022-12-05T16:35:29.434Z,53.13
2022-12-05T16:38:04.344Z,35.05
2022-12-05T16:40:32.248Z,24.17
2022-12-05T16:43:07.149Z,52.00
2022-12-05T16:45:42.574Z,27.15
2022-12-05T16:48:26.088Z,45.75
2022-12-05T16:50:54.574Z,30.95
2022-12-05T16:53:24.262Z,22.13
2022-12-05T16:55:51.971Z,28.27
2022-12-05T16:58:23.859Z,26.98
2022-12-05T17:00:53.254Z,27.98
2022-12-05T17:03:36.482Z,24.17
2022-12-05T17:06:04.444Z,26.17
2022-12-05T17:08:32.523Z,28.85
2022-12-05T17:11:02.185Z,25.30
2022-12-05T17:13:30.791Z,30.73
2022-12-05T17:15:58.364Z,27.95
2022-12-05T17:18:31.250Z,31.17
2022-12-05T17:21:01.209Z,27.70
2022-12-05T17:23:29.094Z,32.42
2022-12-05T17:25:58.353Z,27.42
2022-12-05T17:28:27.265Z,26.33
2022-12-05T17:30:54.772Z,25.60
2022-12-05T17:33:22.499Z,47.15
2022-12-05T17:35:51.376Z,28.40
2022-12-05T17:38:19.833Z,37.40
2022-12-05T17:40:48.189Z,35.83
2022-12-05T17:43:21.354Z,30.42
2022-12-05T17:45:53.351Z,26.30
2022-12-05T17:48:21.305Z,17.92
2022-12-05T17:50:49.958Z,36.47
2022-12-05T17:53:19.598Z,40.13
2022-12-05T17:55:50.316Z,27.67
2022-12-05T17:58:18.407Z,19.63
2022-12-05T18:00:47.346Z,16.42
2022-12-05T18:03:17.328Z,21.13
2022-12-05T18:05:47.337Z,17.55
2022-12-05T18:08:17.484Z,16.80
2022-12-05T18:10:45.939Z,21.70
2022-12-05T18:13:14.043Z,17.75
2022-12-05T18:15:43.289Z,15.05
2022-12-05T18:18:14.837Z,18.10
2022-12-05T18:20:42.683Z,21.48
2022-12-05T18:23:11.269Z,16.85
2022-12-05T18:25:39.089Z,42.95
2022-12-05T18:28:06.705Z,22.65
2022-12-05T18:30:34.538Z,19.35
2022-12-05T18:33:02.020Z,19.80
2022-12-05T18:35:42.453Z,17.52
2022-12-05T18:38:13.151Z,20.05
2022-12-05T18:40:40.939Z,17.20
2022-12-05T18:43:08.578Z,17.30
2022-12-05T18:45:36.317Z,16.77
2022-12-05T18:48:23.294Z,18.10
2022-12-05T18:50:52.027Z,16.38
2022-12-05T18:53:20.310Z,21.35
2022-12-05T18:58:35.528Z,14.45
2022-12-05T19:01:08.404Z,15.43
2022-12-05T19:03:40.934Z,17.40
2022-12-05T19:06:13.134Z,18.48
2022-12-05T19:08:40.619Z,17.00
2022-12-05T19:11:08.595Z,14.98
2022-12-05T19:13:36.919Z,15.75
2022-12-05T19:16:08.921Z,21.45
2022-12-05T19:18:37.525Z,17.73
2022-12-05T19:21:05.150Z,15.57
2022-12-05T19:23:39.608Z,15.15
2022-12-05T19:26:08.242Z,19.50
2022-12-05T19:28:36.846Z,17.85
2022-12-05T19:31:05.894Z,21.95
2022-12-05T19:33:34.520Z,17.10
2022-12-05T19:36:11.532Z,18.27
2022-12-05T19:38:40.464Z,21.40
2022-12-05T19:41:09.351Z,18.50
2022-12-05T19:43:37.258Z,21.08
2022-12-05T19:46:07.014Z,21.67
2022-12-05T19:48:34.970Z,21.33
2022-12-05T19:51:02.981Z,24.55
2022-12-05T19:53:32.095Z,19.75
2022-12-05T19:56:07.636Z,17.85
2022-12-05T19:58:36.239Z,19.55
2022-12-05T20:01:10.074Z,20.52
2022-12-05T20:03:38.334Z,18.83
2022-12-05T20:06:06.479Z,23.02
2022-12-05T20:08:35.074Z,48.30
2022-12-05T20:11:13.841Z,28.70
2022-12-05T20:13:46.885Z,23.48
2022-12-05T20:19:01.416Z,22.50
2022-12-05T20:21:30.227Z,19.83
2022-12-05T20:23:58.868Z,19.45
2022-12-05T20:26:27.750Z,24.17
2022-12-05T20:28:58.094Z,20.13
2022-12-05T20:31:29.798Z,21.25
2022-12-05T20:33:57.410Z,20.02
2022-12-05T20:36:26.284Z,18.88
2022-12-05T20:39:14.615Z,18.60
2022-12-05T20:41:42.208Z,16.15
2022-12-05T20:44:11.678Z,16.60
2022-12-05T20:46:39.288Z,15.70
2022-12-05T20:49:07.634Z,14.50
2022-12-05T20:51:36.016Z,16.00
2022-12-05T20:54:06.088Z,14.73
2022-12-05T20:56:34.123Z,14.25
2022-12-05T20:59:02.646Z,12.63
2022-12-05T21:01:31.036Z,17.30
2022-12-05T21:03:58.865Z,13.57
2022-12-05T21:06:27.597Z,11.63
2022-12-05T21:08:55.729Z,12.52
2022-12-05T21:11:23.747Z,15.70
2022-12-05T21:13:51.728Z,54.22
2022-12-05T21:16:21.036Z,23.40
2022-12-05T21:18:48.716Z,24.48
2022-12-05T21:21:17.492Z,30.60
2022-12-05T21:23:45.778Z,21.02
2022-12-05T21:26:15.594Z,20.95
2022-12-05T21:28:44.158Z,20.33
2022-12-05T21:31:13.276Z,22.42
2022-12-05T21:33:41.986Z,15.65
2022-12-05T21:36:09.917Z,13.85
2022-12-05T21:38:37.733Z,14.30
2022-12-05T21:41:06.427Z,15.50
2022-12-05T21:43:34.874Z,15.88
2022-12-05T21:46:02.505Z,13.93
2022-12-05T21:48:30.438Z,15.82
2022-12-05T21:50:57.942Z,17.42
2022-12-05T21:53:25.647Z,16.35
2022-12-05T21:56:03.199Z,19.08
2022-12-05T21:58:31.068Z,15.45
2022-12-05T22:00:58.527Z,15.75
2022-12-05T22:03:26.230Z,16.52
2022-12-05T22:06:00.945Z,15.98
2022-12-05T22:08:29.915Z,16.88
2022-12-05T22:10:57.444Z,14.52
2022-12-05T22:13:25.128Z,13.80
2022-12-05T22:15:52.907Z,15.60
2022-12-05T22:18:20.781Z,16.50
2022-12-05T22:20:55.166Z,16.88
2022-12-05T22:23:22.907Z,16.70
2022-12-05T22:26:00.574Z,17.45
2022-12-05T22:28:28.627Z,15.15
2022-12-05T22:30:57.604Z,14.73
2022-12-05T22:33:25.858Z,15.98
2022-12-05T22:35:53.967Z,14.52
2022-12-05T22:38:21.448Z,16.23
2022-12-05T22:40:53.788Z,16.25
2022-12-05T22:43:21.318Z,16.60
2022-12-05T22:45:48.972Z,16.27
2022-12-05T22:48:16.585Z,13.52
2022-12-05T22:50:48.236Z,18.80
2022-12-05T22:53:16.998Z,14.65
2022-12-05T22:55:44.609Z,14.98
2022-12-05T22:58:12.351Z,15.43
2022-12-05T23:00:40.437Z,14.77
2022-12-05T23:03:08.685Z,11.85
2022-12-05T23:05:45.779Z,17.70
2022-12-05T23:08:14.395Z,13.80
2022-12-05T23:10:42.350Z,16.23
2022-12-05T23:13:10.998Z,15.05
2022-12-05T23:15:39.717Z,13.98
2022-12-05T23:18:08.079Z,15.20
2022-12-05T23:20:35.771Z,12.98
2022-12-05T23:23:03.595Z,16.77
2022-12-05T23:25:31.184Z,15.82
2022-12-05T23:27:58.954Z,14.60
2022-12-05T23:30:26.774Z,15.93
2022-12-05T23:32:54.694Z,15.57
2022-12-05T23:35:22.414Z,15.77
2022-12-05T23:37:50.030Z,16.20
2022-12-05T23:40:17.804Z,13.77
2022-12-05T23:42:45.476Z,14.55
2022-12-05T23:45:13.045Z,16.02
2022-12-05T23:47:40.745Z,14.88
2022-12-05T23:50:08.735Z,15.05
2022-12-05T23:52:38.096Z,16.60
2022-12-05T23:55:06.143Z,16.35
2022-12-05T23:57:33.882Z,18.55
